Sparta, WI

6:06 AM CST on November 23, 2014 (GMT -0600)
Sparta-Fort McCoy | Change Station
CLOSE
Current Station
Airport
Location: Sparta,
Elevation: 837 ft
Nearby Weather Stations
Active Advisory: Special Statement

Elev 837 ft 43.96 °N, 90.74 °W | Updated 11 minutes ago

Overcast
Overcast
50 °F
Feels Like 50 °F
N
14
Wind Variable Wind from South
Gusts 17 mph

Today
High -- | Low -- °F
--% Chance of Precip.
Yesterday
High -- | Low -- °F
Precip. -- in
7:08 AM 4:30 PM
New Moon, 1% visible
Pressure 29.56 in
Visibility 7.0 miles
Clouds Overcast 1100 ft
Dew Point 48 °F
Humidity 94%
Rainfall 0.00 in
Snow Depth Not available.
UV 0 out of 12
Pollen .10 out of 12
Air Quality Not available.
Flu Activity Not available.
METAR KCMY 231155Z AUTO 17012G15KT 7SM OVC011 10/09 A2956 RMK AO2 70001 T01000090 10115 20100

More Conditions Fewer Conditions

Pressure 29.56 in
Visibility 7.0 miles
Clouds Overcast 1100 ft
Dew Point 48 °F
Humidity 94%
Rainfall 0.00 in
Snow Depth Not available.
UV 0 out of 12
Pollen .10 out of 12
Air Quality Not available.
Flu Activity Not available.
METAR KCMY 231155Z AUTO 17012G15KT 7SM OVC011 10/09 A2956 RMK AO2 70001 T01000090 10115 20100

More Conditions Fewer Conditions

10-Day Weather Forecast

Almanac

Astronomy

Nov. 23, 2014 Rise Set
Actual Time
Civil Twilight
Nautical Twilight
Astronomical Twilight
Moon
Length of Visible Light
Length of Day
Tomorrow will be .
, % of the Moon is Illuminated

Today's Extremes

State Highs State Lows

Community

WunderPhotos

Upload Photos

1,773,041 photos uploaded!

WunderBlogs® & News

Nearby

Air Quality

  Air Quality AQ Index Pollutant
Not available.

Snow Depth

Station Depth Elevation

Earthquake Activity

City Distance Mag. Time & Date
Minimum magnitude displayed is 2.5.

Coastal Water Temperatures

Place Temperature

Nearby Weather Stations